• Join FlightAware (Why Join?)
  • Login
  • US Flag 
09:20PM EDT


 

Airport Tracker/Info


-or-


 

Live Flight TrackerFlight Track Log ✈ UAL4457 ✈ 15-Jul-2013 ✈ KIAH - KLEX

Flight Track Log - Related Links

Times and Time Zones

All times are in EDT time to prevent confusion due to time zone crossing. See the UAL4457 flight status page for this flight to view local times or setup timezone preferences in your user account.

Time Position Orientation Groundspeed Altitude Reporting Facility
EDT Latitude Longitude Course Direction KTS MPH feet Rate Location/Type
02:50PM 29.9764 -95.2983 35° Northeast 169 194 700  Level Houston Center
02:51PM 30.0267 -95.2731 24° Northeast 215 247 2,600 1,680 Climbing Houston Center
02:52PM 30.0978 -95.2692 North 283 326 4,400 2,160 Climbing Houston Center
02:53PM 30.2527 -95.1124 32° Northeast  Level FlightAware Approximate
02:54PM 30.3459 -95.0433 35° Northeast  Level FlightAware Approximate
02:54PM 30.2058 -95.2617 North 266 306 8,000  Level Houston Center
02:55PM 30.4340 -94.9660 41° Northeast  Level FlightAware Approximate
02:55PM 30.2839 -95.2531 North 273 314 9,600  Level Houston Center
02:56PM 30.5266 -94.9020 35° Northeast  Level FlightAware Approximate
02:56PM 30.3581 -95.2031 30° Northeast 297 342 11,100  Level Houston Center
02:57PM 30.4322 -95.1478 33° Northeast 312 359 13,000 1,800 Climbing Houston Center
02:58PM 30.5019 -95.0878 37° Northeast 312 359 14,900 1,620 Climbing Houston Center
02:59PM 30.5906 -95.0142 36° Northeast 319 367 16,400 1,200 Climbing Houston Center
03:00PM 30.6714 -94.9472 35° Northeast 340 391 17,400 900 Climbing Houston Center
03:01PM 30.7617 -94.8914 28° Northeast 356 410 18,300 960 Climbing Houston Center
03:02PM 30.8581 -94.8458 22° Northeast 371 427 19,400 960 Climbing Houston Center
03:03PM 30.9575 -94.7983 22° Northeast 379 436 20,400 960 Climbing Houston Center
03:04PM 31.0589 -94.7500 22° Northeast 390 449 21,400 1,020 Climbing Houston Center
03:05PM 31.1783 -94.6897 23° Northeast 398 458 22,600 960 Climbing Houston Center
03:06PM 31.2783 -94.6403 23° Northeast 406 467 23,500 900 Climbing Houston Center
03:07PM 31.3797 -94.5917 22° Northeast 402 463 24,500 720 Climbing Houston Center
03:08PM 31.4811 -94.5422 23° Northeast 398 458 25,100 900 Climbing Houston Center
03:09PM 31.6053 -94.4828 22° Northeast 401 461 26,400 1,080 Climbing Houston Center
03:10PM 31.6931 -94.4067 36° Northeast 397 457 27,400 960 Climbing Houston Center
03:11PM 31.7739 -94.3197 42° Northeast 393 452 28,400 720 Climbing Houston Center
03:12PM 31.8564 -94.2350 41° Northeast 393 452 28,900 240 Climbing Houston Center
03:13PM 31.9478 -94.1397 41° Northeast 412 474 29,000  Climbing Houston Center
03:15PM 32.0381 -94.0453 42° Northeast 431 496 29,000  Level Houston Center
03:16PM 32.1628 -93.9164 41° Northeast 429 494 29,000  Level Fort Worth Center
03:17PM 32.2436 -93.8250 44° Northeast 434 499 29,000  Level Fort Worth Center
03:18PM 32.3369 -93.7253 42° Northeast 442 509 29,000 60 Level Fort Worth Center
03:19PM 32.4319 -93.6231 42° Northeast 447 514 29,200 540 Climbing Fort Worth Center
03:20PM 32.5269 -93.5253 41° Northeast 452 520 30,200 960 Climbing Fort Worth Center
03:21PM 32.6139 -93.4306 43° Northeast 445 512 31,200 960 Climbing Fort Worth Center
03:22PM 32.7006 -93.3378 42° Northeast 428 493 32,200 960 Climbing Fort Worth Center
03:23PM 32.7894 -93.2472 41° Northeast 421 484 33,200 960 Climbing Fort Worth Center
03:24PM 32.8719 -93.1544 43° Northeast 416 479 34,200 900 Climbing Fort Worth Center
03:25PM 32.9492 -93.0294 54° Northeast 413 475 35,000 360 Climbing Fort Worth Center
03:26PM 33.0136 -92.9097 57° Northeast 423 487 35,000  Level Fort Worth Center
03:27PM 33.0822 -92.7872 56° Northeast 435 501 35,000  Level Fort Worth Center
03:28PM 33.1506 -92.6622 57° Northeast 440 506 35,000  Level Fort Worth Center
03:29PM 33.2169 -92.5419 57° Northeast 440 506 35,000  Level Fort Worth Center
03:31PM 33.3628 -92.2725 57° Northeast 439 505 35,000  Level Memphis Center
03:32PM 33.4272 -92.1494 58° Northeast 439 505 35,000  Level Memphis Center
03:33PM 33.4939 -92.0236 58° Northeast 439 505 35,000  Level Memphis Center
03:34PM 33.5581 -91.9028 57° Northeast 434 499 35,000  Level Memphis Center
03:35PM 33.6261 -91.7767 57° Northeast 434 499 35,000  Level Memphis Center
03:36PM 33.6903 -91.6531 58° Northeast 434 499 35,000  Level Memphis Center
03:37PM 33.7583 -91.5264 57° Northeast 434 499 35,000  Level Memphis Center
03:38PM 33.8114 -91.4222 58° Northeast 440 506 35,000  Level Memphis Center
03:39PM 33.8833 -91.2881 57° Northeast 440 506 35,000  Level Memphis Center
03:40PM 33.9447 -91.1633 59° Northeast 435 501 35,000  Level Memphis Center
03:41PM 34.0103 -91.0414 57° Northeast 435 501 35,000  Level Memphis Center
03:42PM 34.0733 -90.9164 59° Northeast 435 501 35,000  Level Memphis Center
03:43PM 34.1450 -90.7789 58° Northeast 435 501 35,000  Level Memphis Center
03:44PM 34.2078 -90.6586 58° Northeast 435 501 35,000  Level Memphis Center
03:45PM 34.2728 -90.5356 57° Northeast 435 501 35,000  Level Memphis Center
03:46PM 34.3333 -90.4125 59° Northeast 429 494 35,000  Level Memphis Center
03:47PM 34.3961 -90.2892 58° Northeast 429 494 35,000  Level Memphis Center
03:48PM 34.4731 -90.1758 51° Northeast 429 494 35,000  Level Memphis Center
03:49PM 34.5522 -90.0622 50° Northeast 434 499 35,000  Level Memphis Center
03:50PM 34.6289 -89.9508 50° Northeast 434 499 35,000  Level Memphis Center
03:51PM 34.7036 -89.8342 52° Northeast 429 494 35,000  Level Memphis Center
03:52PM 34.7761 -89.7275 50° Northeast 436 502 35,000  Level Memphis Center
03:53PM 34.8672 -89.5903 51° Northeast 436 502 35,000  Level Memphis Center
03:54PM 34.9478 -89.4781 49° Northeast 460 529 35,000  Level Memphis Center
03:55PM 35.0242 -89.3681 50° Northeast 431 496 35,000  Level Memphis Center
03:56PM 35.1047 -89.2503 50° Northeast 436 502 35,000  Level Memphis Center
03:57PM 35.1828 -89.1350 50° Northeast 436 502 35,000  Level Memphis Center
03:58PM 35.2608 -89.0194 50° Northeast 436 502 35,000  Level Memphis Center
03:59PM 35.3367 -88.9036 51° Northeast 436 502 35,000  Level Memphis Center
04:00PM 35.4125 -88.7878 51° Northeast 429 494 35,000  Level Memphis Center
04:01PM 35.4903 -88.6742 50° Northeast 429 494 35,000  Level Memphis Center
04:02PM 35.5636 -88.5603 52° Northeast 429 494 35,000  Level Memphis Center
04:03PM 35.6433 -88.4411 51° Northeast 429 494 35,000  Level Memphis Center
04:04PM 35.7208 -88.3267 50° Northeast 429 494 35,000  Level Memphis Center
04:05PM 35.7958 -88.2097 52° Northeast 429 494 35,000 -360 Level Memphis Center
04:06PM 35.8711 -88.1003 50° Northeast 418 481 34,300 -900 Descending Memphis Center
04:07PM 35.9461 -87.9853 51° Northeast 413 475 33,300 -660 Descending Memphis Center
04:08PM 36.0211 -87.8703 51° Northeast 418 481 33,000 -180 Descending Memphis Center
04:09PM 36.0978 -87.7522 51° Northeast 430 495 33,000  Level Memphis Center
04:10PM 36.1625 -87.6525 51° Northeast 430 495 33,000  Level Memphis Center
04:11PM 36.2369 -87.5367 51° Northeast 430 495 33,000  Level Memphis Center
04:12PM 36.3114 -87.4236 51° Northeast 423 487 33,000  Level Memphis Center
04:13PM 36.3817 -87.3075 53° Northeast 423 487 33,000  Level Memphis Center
04:14PM 36.4469 -87.1708 59° Northeast 423 487 33,000  Level Memphis Center
04:15PM 36.5042 -87.0422 61° Northeast 418 481 33,000  Level Memphis Center
04:16PM 36.5589 -86.9108 63° Northeast 418 481 33,000  Level Memphis Center
04:17PM 36.6156 -86.7817 61° Northeast 426 490 33,000  Level Memphis Center
04:18PM 36.6681 -86.6553 63° Northeast 419 482 33,000  Level Memphis Center
04:19PM 36.7169 -86.5417 62° Northeast 419 482 33,000 -240 Level Memphis Center
04:20PM 36.7711 -86.4147 62° Northeast 419 482 32,600 -1,500 Descending Memphis Center
04:22PM 36.8836 -86.1522 62° Northeast 433 498 28,600 -2,160 Descending Indianapolis Center
04:23PM 36.9411 -86.0161 62° Northeast 437 503 26,100 -2,220 Descending Indianapolis Center
04:24PM 36.9994 -85.8789 62° Northeast 441 507 24,100 -1,020 Descending Indianapolis Center
04:25PM 37.0675 -85.7228 61° Northeast 437 503 24,000 -360 Descending Indianapolis Center
04:26PM 37.1592 -85.6167 43° Northeast 442 509 23,400 -780 Descending Indianapolis Center
04:27PM 37.2514 -85.5117 42° Northeast 443 510 22,400 -1,260 Descending Indianapolis Center
04:28PM 37.3381 -85.4147 42° Northeast 429 494 20,900 -1,920 Descending Indianapolis Center
04:29PM 37.4256 -85.3156 42° Northeast 423 487 18,500 -3,000 Descending Indianapolis Center
04:30PM 37.5214 -85.2039 43° Northeast 400 460 14,700 -3,660 Descending Indianapolis Center
04:31PM 37.5722 -85.0947 60° Northeast 365 420 11,000 -1,980 Descending Indianapolis Center
04:32PM 37.6361 -84.9961 51° Northeast 368 423 10,700 -720 Descending Indianapolis Center
04:33PM 37.7117 -84.9231 37° Northeast 346 398 9,600 -1,560 Descending Indianapolis Center
04:34PM 37.7728 -84.8636 38° Northeast 294 338 7,500 -1,680 Descending Indianapolis Center
04:35PM 37.8311 -84.8097 36° Northeast 268 308 6,200 -1,200 Descending Indianapolis Center
04:36PM 37.8797 -84.7644 36° Northeast 198 228 5,100 -1,260 Descending Indianapolis Center
04:37PM 37.9228 -84.7250 36° Northeast 193 222 3,700 -1,380 Descending Indianapolis Center